Time;durP1;ratioP1;P1;durP2;ratioP2;P2;SDS_P1;SDS_P2;PMS_P1;PMS_P2;Temp;Humidity;BMP_temperature;BMP_pressure;BME280_temperature;BME280_humidity;BME280_pressure;Samples;Min_cycle;Max_cycle;Signal;HPM_P1;HPM_P2
2024/01/23 00:00:13;;;;;;;15.40;8.30;;;;;;;0.56;59.99;99260.18;105486;1254;96703;-84
2024/01/23 00:03:00;;;;;;;15.70;7.30;;;;;;;0.55;60.00;99260.37;105558;1259;109405;-87
2024/01/23 00:05:27;;;;;;;15.80;8.10;;;;;;;0.54;59.94;99253.77;106084;1257;97522;-80
2024/01/23 00:07:54;;;;;;;17.30;7.70;;;;;;;0.54;60.04;99249.23;106274;1254;96579;-85
2024/01/23 00:10:22;;;;;;;17.40;8.70;;;;;;;0.53;60.04;99254.85;106630;1254;96646;-76
2024/01/23 00:12:49;;;;;;;18.90;8.90;;;;;;;0.54;60.22;99265.98;106098;1254;97071;-85
2024/01/23 00:15:16;;;;;;;13.10;6.70;;;;;;;0.53;60.34;99262.86;106219;1254;96589;-84
2024/01/23 00:17:42;;;;;;;17.60;9.30;;;;;;;0.54;60.45;99254.98;106983;1254;96537;-84
2024/01/23 00:20:10;;;;;;;14.50;7.30;;;;;;;0.55;60.38;99263.68;105411;1257;96568;-80
2024/01/23 00:22:36;;;;;;;18.00;9.30;;;;;;;0.56;60.45;99261.55;108187;1254;95630;-87
2024/01/23 00:25:03;;;;;;;16.20;7.90;;;;;;;0.58;60.53;99271.79;105288;1268;96626;-87
2024/01/23 00:27:29;;;;;;;13.20;6.70;;;;;;;0.61;60.95;99269.11;106128;1253;96704;-84
2024/01/23 00:29:56;;;;;;;17.50;9.30;;;;;;;0.60;60.66;99277.33;106332;1254;96580;-83
2024/01/23 00:32:28;;;;;;;;;;;;;;;0.61;60.65;99274.17;105829;1254;96612;-82
2024/01/23 00:34:54;;;;;;;14.30;7.20;;;;;;;0.61;61.02;99261.78;106241;1256;107585;-86
2024/01/23 00:37:21;;;;;;;;;;;;;;;0.61;61.05;99274.70;106718;1254;96610;-81
2024/01/23 00:39:48;;;;;;;14.80;7.70;;;;;;;0.62;61.01;99274.83;107377;1254;96571;-83
2024/01/23 00:42:14;;;;;;;;;;;;;;;0.62;61.29;99273.07;106652;1254;96518;-81
2024/01/23 00:44:40;;;;;;;14.00;6.10;;;;;;;0.64;61.34;99276.88;105745;1257;97521;-85
2024/01/23 00:47:07;;;;;;;14.20;8.10;;;;;;;0.64;61.41;99271.27;106172;1255;96600;-76
2024/01/23 00:49:33;;;;;;;15.50;7.90;;;;;;;0.63;61.57;99267.29;106031;1257;96590;-81
2024/01/23 00:52:00;;;;;;;16.20;8.30;;;;;;;0.63;61.69;99267.30;106029;1257;96607;-85
2024/01/23 00:54:26;;;;;;;18.80;8.30;;;;;;;0.62;61.43;99258.80;108351;1254;94615;-83
2024/01/23 00:56:53;;;;;;;;;;;;;;;0.61;61.84;99254.62;108402;1253;96179;-83
2024/01/23 00:59:19;;;;;;;15.30;7.20;;;;;;;0.58;61.98;99251.55;106047;1257;96585;-83
2024/01/23 01:01:46;;;;;;;14.10;7.80;;;;;;;0.56;61.83;99246.55;108297;1254;96492;-85
2024/01/23 01:04:13;;;;;;;13.40;7.30;;;;;;;0.57;62.07;99242.50;106176;1254;96526;-85
2024/01/23 01:06:39;;;;;;;13.10;7.30;;;;;;;0.56;62.32;99246.21;107550;1254;95057;-85
2024/01/23 01:09:06;;;;;;;;;;;;;;;0.54;62.35;99245.22;105430;1255;97935;-85
2024/01/23 01:11:32;;;;;;;15.40;8.20;;;;;;;0.52;62.97;99241.95;106405;1254;96601;-83
2024/01/23 01:13:59;;;;;;;13.80;7.30;;;;;;;0.50;62.76;99244.27;105296;1257;96620;-84
2024/01/23 01:16:25;;;;;;;15.30;7.50;;;;;;;0.49;62.70;99247.96;107970;1254;96495;-85
2024/01/23 01:18:53;;;;;;;17.10;7.60;;;;;;;0.48;62.81;99245.20;107290;1253;96566;-84
2024/01/23 01:21:19;;;;;;;12.90;7.70;;;;;;;0.48;62.76;99245.57;106697;1254;109450;-85
2024/01/23 01:23:46;;;;;;;14.20;7.50;;;;;;;0.48;62.90;99251.68;106420;1256;96897;-85
2024/01/23 01:26:12;;;;;;;17.50;7.60;;;;;;;0.48;63.24;99251.66;105735;1258;97107;-86
2024/01/23 01:28:38;;;;;;;15.00;7.40;;;;;;;0.47;63.02;99251.51;106231;1254;97056;-82
2024/01/23 01:31:05;;;;;;;9.80;5.80;;;;;;;0.45;63.02;99253.12;106247;1253;110053;-85
2024/01/23 01:33:31;;;;;;;15.00;7.90;;;;;;;0.43;63.41;99261.38;106118;1254;96561;-83
2024/01/23 01:35:58;;;;;;;14.30;7.30;;;;;;;0.42;63.33;99265.08;105496;1254;97557;-86
2024/01/23 01:38:25;;;;;;;;;;;;;;;0.42;63.66;99263.68;106080;1257;97165;-86
2024/01/23 01:40:51;;;;;;;12.70;6.30;;;;;;;0.40;63.64;99261.67;105581;1254;96606;-84
2024/01/23 01:43:27;;;;;;;15.50;7.70;;;;;;;0.38;63.78;99263.29;105254;1254;96600;-85
2024/01/23 01:46:25;;;;;;;18.00;8.50;;;;;;;0.36;63.78;99270.33;105722;1257;107451;-80
2024/01/23 01:48:53;;;;;;;9.80;5.40;;;;;;;0.34;64.18;99265.48;106549;1254;96597;-86
2024/01/23 01:51:23;;;;;;;11.50;7.00;;;;;;;0.33;64.39;99267.61;107051;1254;96468;-77
2024/01/23 01:53:51;;;;;;;12.40;6.40;;;;;;;0.31;64.42;99268.89;107755;1254;109957;-83
2024/01/23 01:56:18;;;;;;;16.40;7.60;;;;;;;0.30;64.62;99265.06;108431;1253;95152;-78
2024/01/23 01:58:45;;;;;;;16.00;8.10;;;;;;;0.30;64.60;99269.09;106788;1254;106051;-85
2024/01/23 02:01:13;;;;;;;13.40;6.70;;;;;;;0.28;64.41;99274.90;107000;1254;96623;-85
2024/01/23 02:03:40;;;;;;;12.80;6.60;;;;;;;0.28;64.56;99275.92;107197;1256;95703;-84
2024/01/23 02:06:07;;;;;;;14.80;7.50;;;;;;;0.28;64.73;99282.05;106617;1253;96598;-82
2024/01/23 02:08:37;;;;;;;12.70;6.90;;;;;;;0.28;64.60;99276.13;106832;1252;96607;-83
2024/01/23 02:11:03;;;;;;;14.90;8.20;;;;;;;0.26;64.69;99274.92;106806;1257;106629;-84
2024/01/23 02:13:30;;;;;;;16.00;8.40;;;;;;;0.25;64.87;99277.23;106604;1257;96614;-83
2024/01/23 02:15:56;;;;;;;17.00;7.90;;;;;;;0.24;64.55;99278.65;107267;1252;96687;-83
2024/01/23 02:18:23;;;;;;;14.10;7.90;;;;;;;0.24;64.78;99273.77;105212;1267;96944;-84
2024/01/23 02:20:49;;;;;;;13.20;7.50;;;;;;;0.26;64.77;99275.11;106972;1254;96606;-84
2024/01/23 02:23:17;;;;;;;18.20;8.40;;;;;;;0.26;64.96;99274.23;106415;1253;96566;-84
2024/01/23 02:25:44;;;;;;;16.20;8.90;;;;;;;0.25;65.20;99283.71;105649;1253;96672;-84
2024/01/23 02:28:11;;;;;;;16.90;7.60;;;;;;;0.23;65.27;99291.59;106080;1257;96618;-84
2024/01/23 02:30:37;;;;;;;15.50;8.40;;;;;;;0.23;65.43;99291.43;105432;1254;97936;-84
2024/01/23 02:33:05;;;;;;;16.10;7.80;;;;;;;0.22;65.34;99288.85;105296;1259;97995;-84
2024/01/23 02:35:33;;;;;;;12.30;5.40;;;;;;;0.21;65.30;99290.61;105771;1253;96600;-85
2024/01/23 02:38:00;;;;;;;18.00;7.60;;;;;;;0.20;65.36;99297.95;108469;1252;94567;-83
2024/01/23 02:40:27;;;;;;;12.40;6.90;;;;;;;0.20;65.49;99298.16;106539;1254;95845;-83
2024/01/23 02:42:53;;;;;;;14.90;7.40;;;;;;;0.18;65.60;99299.06;105321;1258;96637;-81
2024/01/23 02:45:21;;;;;;;13.80;6.60;;;;;;;0.19;65.55;99299.91;106955;1253;96612;-83
2024/01/23 02:47:47;;;;;;;11.70;6.00;;;;;;;0.18;65.44;99299.23;105568;1257;96604;-87
2024/01/23 02:50:15;;;;;;;15.40;8.00;;;;;;;0.15;65.72;99296.17;105526;1258;96603;-84
2024/01/23 02:52:42;;;;;;;19.50;8.90;;;;;;;0.13;65.82;99299.70;106677;1254;96505;-83
2024/01/23 02:55:09;;;;;;;16.20;8.70;;;;;;;0.11;65.96;99300.63;105644;1257;97148;-82
2024/01/23 02:57:35;;;;;;;13.80;6.40;;;;;;;0.10;65.93;99295.42;105154;1257;97905;-84
2024/01/23 03:00:02;;;;;;;;;;;;;;;0.10;65.89;99298.39;108126;1253;94631;-78
2024/01/23 03:02:29;;;;;;;13.00;6.90;;;;;;;0.09;66.25;99296.48;107104;1255;96617;-80
2024/01/23 03:04:56;;;;;;;17.80;8.50;;;;;;;0.08;66.06;99293.05;105232;1260;96597;-82
2024/01/23 03:07:23;;;;;;;16.10;7.70;;;;;;;0.07;66.50;99286.27;105249;1258;97520;-84
2024/01/23 03:09:50;;;;;;;15.50;7.30;;;;;;;0.04;66.47;99287.73;105938;1254;96606;-84
2024/01/23 03:12:17;;;;;;;14.80;7.00;;;;;;;0.04;66.70;99287.21;105741;1254;96540;-81
2024/01/23 03:14:45;;;;;;;14.90;7.60;;;;;;;0.02;66.73;99289.17;105837;1255;96643;-81
2024/01/23 03:17:13;;;;;;;15.60;7.70;;;;;;;0.00;66.67;99289.06;106278;1257;107511;-82
2024/01/23 03:19:40;;;;;;;17.60;8.50;;;;;;;0.01;66.67;99285.55;105607;1257;96607;-81
2024/01/23 03:22:08;;;;;;;11.40;6.10;;;;;;;0.02;66.79;99283.09;107419;1254;95086;-81
2024/01/23 03:24:39;;;;;;;13.90;7.10;;;;;;;0.03;66.79;99289.85;105860;1253;96559;-84
2024/01/23 03:27:06;;;;;;;16.60;8.30;;;;;;;0.04;67.00;99288.27;106257;1252;96724;-85
2024/01/23 03:29:55;;;;;;;16.00;7.70;;;;;;;0.03;66.94;99292.29;105654;1252;107614;-84
2024/01/23 03:32:22;;;;;;;14.00;6.80;;;;;;;0.02;66.99;99298.43;106036;1254;97892;-82
2024/01/23 03:34:49;;;;;;;14.30;7.00;;;;;;;0.01;67.20;99296.89;107979;1254;96527;-85
2024/01/23 03:37:16;;;;;;;13.90;6.20;;;;;;;-0.01;67.45;99300.78;106479;1252;96499;-84
2024/01/23 03:39:42;;;;;;;;;;;;;;;-0.03;67.37;99301.53;105774;1257;97924;-84
2024/01/23 03:42:09;;;;;;;16.60;7.20;;;;;;;-0.05;67.67;99295.48;107277;1253;96535;-85
2024/01/23 03:44:35;;;;;;;12.60;7.90;;;;;;;-0.08;67.49;99297.98;105660;1256;98925;-85
2024/01/23 03:47:02;;;;;;;14.70;7.90;;;;;;;-0.10;67.51;99299.93;105555;1254;109979;-87
2024/01/23 03:49:29;;;;;;;17.40;8.20;;;;;;;-0.10;67.67;99307.09;107071;1252;96536;-82
2024/01/23 03:51:55;;;;;;;15.60;8.20;;;;;;;-0.10;67.53;99314.77;108393;1252;94408;-83
2024/01/23 03:54:23;;;;;;;14.30;7.80;;;;;;;-0.10;67.52;99320.52;106958;1253;97602;-84
2024/01/23 03:56:49;;;;;;;;;;;;;;;-0.09;67.53;99317.86;108067;1252;96440;-81
2024/01/23 03:59:16;;;;;;;12.60;6.70;;;;;;;-0.09;67.65;99321.00;105671;1257;97937;-84
2024/01/23 04:01:42;;;;;;;15.50;7.50;;;;;;;-0.10;67.72;99327.32;105760;1252;107722;-83
2024/01/23 04:04:08;;;;;;;9.20;5.40;;;;;;;-0.10;67.61;99334.12;106159;1252;96604;-85
2024/01/23 04:06:35;;;;;;;14.10;7.50;;;;;;;-0.10;67.73;99332.21;105698;1267;96671;-84
2024/01/23 04:09:02;;;;;;;;;;;;;;;-0.12;67.77;99325.27;107692;1254;96083;-85
2024/01/23 04:11:29;;;;;;;13.00;7.30;;;;;;;-0.13;67.80;99319.90;107680;1252;96585;-85
2024/01/23 04:13:55;;;;;;;14.90;8.10;;;;;;;-0.14;67.65;99311.73;107149;1254;96632;-86
2024/01/23 04:16:22;;;;;;;13.50;7.70;;;;;;;-0.15;67.97;99313.15;105754;1257;97982;-84
2024/01/23 04:18:48;;;;;;;17.50;7.30;;;;;;;-0.17;67.85;99313.36;105438;1253;96582;-84
2024/01/23 04:21:16;;;;;;;16.40;7.90;;;;;;;-0.17;68.28;99309.36;106372;1253;96718;-85
2024/01/23 04:23:43;;;;;;;18.40;8.80;;;;;;;-0.19;68.11;99309.21;105630;1253;97870;-82
2024/01/23 04:26:09;;;;;;;16.60;8.00;;;;;;;-0.18;68.26;99306.77;107436;1252;96487;-85
2024/01/23 04:28:36;;;;;;;14.60;6.90;;;;;;;-0.19;68.13;99299.48;105259;1253;97035;-85
2024/01/23 04:31:03;;;;;;;16.10;9.10;;;;;;;-0.18;68.26;99299.98;105968;1253;97521;-82
2024/01/23 04:33:29;;;;;;;;;;;;;;;-0.18;68.20;99294.55;107963;1253;96582;-85
2024/01/23 04:35:56;;;;;;;14.00;7.40;;;;;;;-0.19;68.22;99288.14;105561;1253;96582;-85
2024/01/23 04:38:23;;;;;;;13.30;6.50;;;;;;;-0.19;68.50;99289.00;105802;1254;96603;-86
2024/01/23 04:40:49;;;;;;;18.90;8.60;;;;;;;-0.19;68.50;99290.74;106275;1253;96558;-85
2024/01/23 04:43:16;;;;;;;15.30;7.80;;;;;;;-0.19;68.45;99289.17;105845;1255;107749;-85
2024/01/23 04:45:42;;;;;;;15.80;7.60;;;;;;;-0.19;68.47;99302.96;107313;1254;96650;-77
2024/01/23 04:48:10;;;;;;;14.50;8.00;;;;;;;-0.19;68.66;99299.81;105376;1256;96676;-86
2024/01/23 04:50:36;;;;;;;12.50;8.40;;;;;;;-0.16;68.59;99305.67;107271;1252;96530;-85
2024/01/23 04:53:03;;;;;;;14.60;7.30;;;;;;;-0.16;68.76;99304.63;107654;1252;97001;-85
2024/01/23 04:55:29;;;;;;;17.40;8.20;;;;;;;-0.13;68.73;99307.36;107275;1253;96607;-86
2024/01/23 04:57:56;;;;;;;13.40;7.90;;;;;;;-0.11;68.93;99316.02;106945;1253;96471;-86
2024/01/23 05:00:23;;;;;;;17.40;9.10;;;;;;;-0.10;68.77;99318.61;105638;1269;96601;-81
2024/01/23 05:02:50;;;;;;;18.60;9.20;;;;;;;-0.08;68.76;99320.30;108086;1253;95084;-76
2024/01/23 05:05:17;;;;;;;16.90;8.90;;;;;;;-0.07;68.96;99321.13;107434;1252;196363;-87
2024/01/23 05:07:45;;;;;;;17.50;8.80;;;;;;;-0.06;68.88;99322.52;106165;1252;96511;-80
2024/01/23 05:10:13;;;;;;;16.90;6.80;;;;;;;-0.05;68.90;99324.57;106666;1256;96601;-80
2024/01/23 05:12:40;;;;;;;19.80;9.20;;;;;;;-0.04;69.04;99328.91;105511;1253;96702;-82
2024/01/23 05:15:07;;;;;;;18.50;9.40;;;;;;;-0.03;69.12;99333.07;106784;1257;96607;-84
2024/01/23 05:17:34;;;;;;;13.50;7.00;;;;;;;-0.02;69.11;99336.04;107031;1252;96725;-84
2024/01/23 05:20:01;;;;;;;13.10;6.30;;;;;;;-0.02;69.10;99335.84;107402;1252;96687;-88
2024/01/23 05:22:28;;;;;;;17.00;7.20;;;;;;;-0.02;69.13;99337.39;107220;1254;96365;-89
2024/01/23 05:24:54;;;;;;;13.30;7.30;;;;;;;-0.02;69.12;99336.16;105405;1270;96592;-89
2024/01/23 05:27:21;;;;;;;14.10;7.20;;;;;;;-0.01;69.41;99337.22;106340;1254;107671;-79
2024/01/23 05:29:47;;;;;;;14.60;7.70;;;;;;;-0.04;69.20;99341.80;107451;1253;97522;-88
2024/01/23 05:32:14;;;;;;;;;;;;;;;-0.05;69.22;99340.79;108625;1252;94402;-81
2024/01/23 05:34:40;;;;;;;11.60;6.80;;;;;;;-0.05;69.46;99352.46;108846;1253;94194;-83
2024/01/23 05:37:07;;;;;;;11.90;6.30;;;;;;;-0.04;69.64;99356.47;108581;1256;94652;-87
2024/01/23 05:39:37;;;;;;;17.40;7.50;;;;;;;-0.04;69.64;99354.37;108418;1252;96474;-88
2024/01/23 05:42:05;;;;;;;13.60;7.10;;;;;;;-0.04;69.68;99361.69;108547;1254;94677;-87
2024/01/23 05:44:33;;;;;;;14.60;7.90;;;;;;;-0.02;69.66;99360.06;108557;1253;110375;-84
2024/01/23 05:46:59;;;;;;;14.60;7.20;;;;;;;-0.01;69.74;99361.29;108373;1254;95310;-83
2024/01/23 05:49:26;;;;;;;16.80;8.70;;;;;;;-0.02;69.62;99359.89;107119;1252;96601;-83
2024/01/23 05:51:52;;;;;;;18.60;9.00;;;;;;;-0.02;69.80;99361.46;106727;1254;96669;-88
2024/01/23 05:54:19;;;;;;;14.50;7.50;;;;;;;-0.02;69.83;99371.21;106552;1256;96545;-87
2024/01/23 05:56:45;;;;;;;13.50;7.10;;;;;;;-0.02;69.81;99372.95;106592;1254;97530;-85
2024/01/23 05:59:12;;;;;;;15.00;8.20;;;;;;;-0.02;69.90;99377.86;105676;1257;106888;-88
2024/01/23 06:01:38;;;;;;;17.50;8.70;;;;;;;-0.03;69.99;99378.58;106070;1252;96589;-86
2024/01/23 06:04:07;;;;;;;15.80;7.50;;;;;;;-0.04;69.91;99385.05;106077;1253;96577;-84
2024/01/23 06:06:39;;;;;;;18.10;8.30;;;;;;;-0.05;70.07;99385.09;106199;1252;109910;-85
2024/01/23 06:09:07;;;;;;;15.90;8.50;;;;;;;-0.07;70.14;99388.95;106234;1254;96651;-79
2024/01/23 06:11:33;;;;;;;13.00;7.10;;;;;;;-0.06;70.21;99394.34;106866;1256;107570;-76
2024/01/23 06:14:00;;;;;;;9.20;5.20;;;;;;;-0.03;70.35;99393.92;105597;1254;97030;-76
2024/01/23 06:16:26;;;;;;;14.70;8.40;;;;;;;-0.00;70.54;99399.80;106187;1256;96668;-75
2024/01/23 06:18:53;;;;;;;12.10;5.70;;;;;;;0.00;70.38;99402.92;105807;1257;96588;-75
2024/01/23 06:21:19;;;;;;;14.60;8.50;;;;;;;0.01;70.61;99408.13;106860;1252;107579;-75
2024/01/23 06:23:46;;;;;;;17.10;9.00;;;;;;;-0.00;70.36;99411.11;106237;1252;96655;-76
2024/01/23 06:26:12;;;;;;;14.10;6.30;;;;;;;-0.02;70.48;99412.88;105516;1257;96596;-78
2024/01/23 06:28:39;;;;;;;13.90;7.40;;;;;;;-0.02;70.50;99416.39;106974;1252;96494;-76
2024/01/23 06:31:05;;;;;;;19.40;9.30;;;;;;;-0.03;70.53;99421.81;105154;1259;96659;-75
2024/01/23 06:33:33;;;;;;;15.30;8.50;;;;;;;-0.04;70.74;99419.56;105569;1257;96587;-76
2024/01/23 06:35:59;;;;;;;19.10;9.40;;;;;;;-0.04;70.80;99421.49;106428;1256;96579;-76
2024/01/23 06:38:26;;;;;;;17.10;10.20;;;;;;;-0.05;70.77;99422.05;105849;1257;96772;-77
2024/01/23 06:40:53;;;;;;;16.70;8.30;;;;;;;-0.06;70.93;99424.69;105175;1266;96596;-77
2024/01/23 06:43:20;;;;;;;15.80;8.80;;;;;;;-0.08;70.83;99432.04;105924;1252;97099;-75
2024/01/23 06:45:46;;;;;;;13.40;8.00;;;;;;;-0.08;70.89;99434.48;107397;1252;96643;-75
2024/01/23 06:48:13;;;;;;;16.90;7.90;;;;;;;-0.09;70.77;99433.29;105694;1253;96674;-75
2024/01/23 06:50:39;;;;;;;15.30;8.20;;;;;;;-0.09;70.96;99432.95;105543;1252;97941;-76
2024/01/23 06:53:06;;;;;;;14.90;8.00;;;;;;;-0.08;70.89;99434.66;105435;1256;97528;-77
2024/01/23 06:55:32;;;;;;;14.30;7.40;;;;;;;-0.09;70.90;99439.40;106494;1257;97533;-75
2024/01/23 06:57:59;;;;;;;14.30;7.50;;;;;;;-0.10;71.30;99438.89;106300;1257;96680;-75
2024/01/23 07:00:26;;;;;;;14.70;7.70;;;;;;;-0.09;71.17;99433.48;107731;1252;96470;-75
2024/01/23 07:02:53;;;;;;;14.10;7.80;;;;;;;-0.08;71.15;99440.23;105753;1253;97535;-76
2024/01/23 07:05:19;;;;;;;13.20;6.60;;;;;;;-0.08;71.19;99441.45;107573;1253;97991;-74
2024/01/23 07:07:45;;;;;;;14.20;7.50;;;;;;;-0.06;71.31;99442.63;106439;1252;96622;-74
2024/01/23 07:10:12;;;;;;;13.90;7.10;;;;;;;-0.05;71.28;99449.07;106425;1253;96511;-77
2024/01/23 07:12:38;;;;;;;12.80;7.30;;;;;;;-0.04;71.21;99446.94;108115;1253;107264;-75
2024/01/23 07:15:05;;;;;;;14.10;7.30;;;;;;;-0.02;71.38;99452.65;106067;1254;96601;-74
2024/01/23 07:17:31;;;;;;;13.00;7.60;;;;;;;-0.01;71.37;99449.84;107312;1254;96524;-75
2024/01/23 07:19:58;;;;;;;15.20;7.90;;;;;;;0.02;71.39;99451.52;108286;1252;96557;-75
2024/01/23 07:22:25;;;;;;;14.10;7.70;;;;;;;0.04;71.47;99454.45;105951;1253;96584;-79
2024/01/23 07:24:51;;;;;;;15.30;8.20;;;;;;;0.04;71.50;99463.50;105329;1253;96676;-76
2024/01/23 07:27:19;;;;;;;13.00;7.60;;;;;;;0.04;71.48;99462.96;105625;1258;96580;-75
2024/01/23 07:29:46;;;;;;;12.20;5.70;;;;;;;0.07;71.48;99474.44;106171;1257;96716;-75
2024/01/23 07:32:12;;;;;;;14.50;7.60;;;;;;;0.07;71.52;99477.91;105721;1255;96658;-76
2024/01/23 07:34:39;;;;;;;13.60;7.20;;;;;;;0.07;71.54;99472.49;106544;1253;96935;-76
2024/01/23 07:37:05;;;;;;;19.20;8.10;;;;;;;0.08;71.57;99484.34;106007;1254;96584;-78
2024/01/23 07:39:32;;;;;;;17.30;10.00;;;;;;;0.07;71.51;99488.88;105535;1257;110177;-76
2024/01/23 07:41:58;;;;;;;;;;;;;;;0.08;71.52;99489.56;106130;1256;96594;-74
2024/01/23 07:44:25;;;;;;;13.80;7.30;;;;;;;0.08;71.62;99488.52;107597;1252;96534;-75
2024/01/23 07:46:51;;;;;;;14.30;8.60;;;;;;;0.08;71.74;99490.42;105917;1253;98011;-76
2024/01/23 07:49:18;;;;;;;19.50;9.70;;;;;;;0.08;71.69;99487.12;107178;1252;97526;-76
2024/01/23 07:51:46;;;;;;;12.00;5.70;;;;;;;0.11;71.71;99492.98;105633;1252;96658;-78
2024/01/23 07:54:13;;;;;;;13.40;6.90;;;;;;;0.14;71.86;99498.51;107026;1256;107288;-75
2024/01/23 07:56:39;;;;;;;16.00;8.00;;;;;;;0.15;71.70;99500.73;105542;1256;96778;-76
2024/01/23 07:59:06;;;;;;;17.60;8.60;;;;;;;0.18;71.81;99506.80;106005;1254;97269;-74
2024/01/23 08:01:33;;;;;;;15.60;7.70;;;;;;;0.21;71.78;99513.17;108302;1252;94580;-75
2024/01/23 08:03:59;;;;;;;14.10;7.70;;;;;;;0.24;71.94;99522.34;107952;1256;96510;-76
2024/01/23 08:06:26;;;;;;;14.40;7.90;;;;;;;0.26;71.92;99514.63;105711;1257;96591;-75
2024/01/23 08:08:53;;;;;;;17.20;8.90;;;;;;;0.28;72.04;99516.15;105913;1254;97339;-75
2024/01/23 08:11:20;;;;;;;13.60;7.50;;;;;;;0.29;71.99;99511.92;105633;1257;96565;-75
2024/01/23 08:13:49;;;;;;;14.40;7.30;;;;;;;0.32;72.07;99512.05;105615;1253;96526;-76
2024/01/23 08:16:16;;;;;;;12.80;7.50;;;;;;;0.33;72.02;99512.20;107444;1254;96601;-75
2024/01/23 08:18:42;;;;;;;16.50;9.00;;;;;;;0.34;72.15;99509.21;106242;1254;97506;-77
2024/01/23 08:21:09;;;;;;;16.20;8.10;;;;;;;0.35;72.15;99515.83;105891;1254;97533;-75
2024/01/23 08:23:36;;;;;;;18.60;8.80;;;;;;;0.35;72.13;99522.27;106607;1256;97516;-74
2024/01/23 08:26:04;;;;;;;18.00;9.70;;;;;;;0.36;72.08;99517.70;105475;1256;97641;-75
2024/01/23 08:28:36;;;;;;;17.00;8.70;;;;;;;0.37;72.13;99517.85;105192;1257;96597;-75
2024/01/23 08:31:03;;;;;;;12.00;6.80;;;;;;;0.39;72.11;99519.39;108359;1253;94669;-73
2024/01/23 08:33:30;;;;;;;15.40;8.30;;;;;;;0.41;72.21;99517.60;108404;1252;95924;-74
2024/01/23 08:35:57;;;;;;;;;;;;;;;0.43;72.18;99510.75;107981;1256;96578;-75
2024/01/23 08:38:24;;;;;;;16.30;9.00;;;;;;;0.42;72.24;99511.60;106939;1256;96639;-74
2024/01/23 08:40:51;;;;;;;11.60;6.70;;;;;;;0.44;72.25;99512.80;105397;1257;96588;-76
2024/01/23 08:43:18;;;;;;;15.10;7.80;;;;;;;0.45;72.18;99517.13;105473;1256;96705;-76
2024/01/23 08:45:44;;;;;;;14.50;8.20;;;;;;;0.47;72.26;99516.75;106923;1256;97316;-75
2024/01/23 08:48:11;;;;;;;13.80;7.00;;;;;;;0.48;72.24;99517.07;107013;1252;107800;-76
2024/01/23 08:50:38;;;;;;;11.80;6.20;;;;;;;0.50;72.25;99522.78;105579;1268;97520;-74
2024/01/23 08:53:04;;;;;;;13.70;7.40;;;;;;;0.52;72.27;99522.73;106719;1253;96644;-76
2024/01/23 08:55:30;;;;;;;19.00;7.50;;;;;;;0.53;72.43;99523.75;106464;1253;96694;-74
2024/01/23 08:57:57;;;;;;;15.90;8.40;;;;;;;0.55;72.37;99527.03;106234;1253;96633;-77
2024/01/23 09:00:25;;;;;;;15.20;8.50;;;;;;;0.56;72.34;99534.16;106275;1256;96588;-75
2024/01/23 09:02:52;;;;;;;19.90;9.20;;;;;;;0.60;72.38;99535.98;105571;1257;96674;-76
2024/01/23 09:05:18;;;;;;;17.20;8.40;;;;;;;0.63;72.37;99536.09;105936;1253;96596;-74
2024/01/23 09:07:45;;;;;;;14.40;7.40;;;;;;;0.64;72.23;99538.84;105447;1259;97540;-74
2024/01/23 09:10:11;;;;;;;18.00;9.40;;;;;;;0.67;72.43;99543.66;105966;1257;96622;-76
2024/01/23 09:12:38;;;;;;;21.90;9.50;;;;;;;0.72;72.32;99543.73;105173;1257;96534;-74
2024/01/23 09:15:09;;;;;;;;;;;;;;;0.74;72.32;99537.20;106072;1254;96567;-75
2024/01/23 09:17:36;;;;;;;21.70;8.20;;;;;;;0.78;72.47;99542.02;105809;1256;96569;-75
2024/01/23 09:20:04;;;;;;;17.00;8.40;;;;;;;0.82;72.46;99542.07;106175;1253;96575;-74
2024/01/23 09:22:32;;;;;;;15.10;7.30;;;;;;;0.86;72.39;99543.71;105255;1253;97068;-76
2024/01/23 09:24:59;;;;;;;17.30;8.20;;;;;;;0.90;72.46;99543.45;106758;1253;96594;-75
2024/01/23 09:27:26;;;;;;;15.30;7.90;;;;;;;0.91;72.56;99539.23;105605;1256;96632;-75
2024/01/23 09:30:05;;;;;;;16.40;8.70;;;;;;;0.94;72.44;99537.08;106400;1252;96425;-76
2024/01/23 09:32:31;;;;;;;21.50;10.50;;;;;;;0.96;72.55;99539.81;105518;1256;97975;-74
2024/01/23 09:34:59;;;;;;;24.00;10.60;;;;;;;0.98;72.45;99541.52;106171;1256;96531;-75
2024/01/23 09:37:25;;;;;;;16.70;9.50;;;;;;;1.02;72.56;99543.66;107649;1253;95314;-81
2024/01/23 09:39:52;;;;;;;16.40;8.40;;;;;;;1.06;72.65;99546.34;108078;1253;94810;-77
2024/01/23 09:42:23;;;;;;;13.50;8.00;;;;;;;1.10;72.65;99547.32;108459;1253;95143;-74
2024/01/23 09:44:55;;;;;;;20.40;9.40;;;;;;;1.13;72.52;99543.39;106664;1254;107263;-74
2024/01/23 09:47:23;;;;;;;19.60;9.70;;;;;;;1.14;72.67;99539.34;107569;1255;96600;-76
2024/01/23 09:49:51;;;;;;;15.20;9.60;;;;;;;1.17;72.62;99542.05;107100;1253;97404;-73
2024/01/23 09:52:20;;;;;;;17.40;8.80;;;;;;;1.22;72.74;99537.39;108520;1253;109410;-74
2024/01/23 09:54:46;;;;;;;15.90;8.40;;;;;;;1.27;72.46;99528.16;105685;1253;96591;-74
2024/01/23 09:57:14;;;;;;;;;;;;;;;1.31;72.63;99523.17;105914;1256;96589;-75
2024/01/23 09:59:41;;;;;;;18.40;8.80;;;;;;;1.35;72.64;99527.77;105758;1257;96592;-74
2024/01/23 10:02:08;;;;;;;17.50;8.00;;;;;;;1.43;72.75;99525.81;105786;1257;98270;-74
2024/01/23 10:04:35;;;;;;;15.80;8.40;;;;;;;1.49;72.70;99527.91;108367;1253;95192;-73
2024/01/23 10:07:07;;;;;;;18.20;8.60;;;;;;;1.56;73.12;99535.40;106136;1254;97364;-77
2024/01/23 10:09:34;;;;;;;16.70;9.30;;;;;;;1.68;72.96;99528.78;106187;1257;107568;-74
2024/01/23 10:12:00;;;;;;;18.30;9.80;;;;;;;1.77;72.75;99527.30;106047;1257;96579;-75
2024/01/23 10:14:27;;;;;;;20.20;10.50;;;;;;;1.83;72.87;99518.91;108222;1253;94519;-75
2024/01/23 10:16:54;;;;;;;18.50;9.50;;;;;;;1.86;72.87;99518.81;105753;1257;96617;-75
2024/01/23 10:19:20;;;;;;;16.60;8.50;;;;;;;1.90;72.53;99519.73;105545;1254;96540;-75
2024/01/23 10:21:47;;;;;;;19.10;9.90;;;;;;;1.94;72.84;99523.14;107291;1257;96585;-76
2024/01/23 10:24:15;;;;;;;22.70;10.60;;;;;;;1.97;72.55;99524.11;105405;1254;96597;-74
2024/01/23 10:26:45;;;;;;;22.50;11.30;;;;;;;1.98;72.82;99525.46;107874;1256;95821;-75
2024/01/23 10:29:12;;;;;;;19.70;11.20;;;;;;;2.03;72.81;99525.69;107495;1256;96591;-73
2024/01/23 10:31:39;;;;;;;18.20;9.00;;;;;;;2.08;72.83;99525.51;106512;1257;96599;-73
2024/01/23 10:34:09;;;;;;;;;;;;;;;2.11;72.59;99532.60;106489;1256;96598;-74
2024/01/23 10:36:36;;;;;;;21.70;10.80;;;;;;;2.15;72.85;99533.54;106895;1253;96518;-75
2024/01/23 10:39:02;;;;;;;;;;;;;;;2.20;72.75;99538.79;106027;1254;96571;-73
2024/01/23 10:41:29;;;;;;;20.00;8.90;;;;;;;2.23;72.88;99538.70;106441;1253;96680;-74
2024/01/23 10:43:58;;;;;;;15.20;7.30;;;;;;;2.23;72.71;99538.88;105865;1257;96604;-74
2024/01/23 10:46:25;;;;;;;16.10;9.10;;;;;;;2.20;72.74;99532.33;105497;1253;96563;-77
2024/01/23 10:48:51;;;;;;;17.00;9.00;;;;;;;2.16;72.75;99532.63;105919;1258;97529;-75
2024/01/23 10:51:19;;;;;;;17.50;9.30;;;;;;;2.14;72.88;99529.18;106478;1253;96838;-74
2024/01/23 10:53:57;;;;;;;21.10;11.00;;;;;;;2.12;72.81;99536.25;106070;1253;96609;-76
2024/01/23 10:56:27;;;;;;;22.00;11.50;;;;;;;2.11;72.67;99537.48;106426;1257;107645;-76
2024/01/23 10:59:00;;;;;;;18.20;9.80;;;;;;;2.09;72.52;99543.48;106446;1256;96590;-75
2024/01/23 11:03:35;;;;;;;22.00;11.30;;;;;;;2.05;72.52;99543.63;102161;1292;635950;-74
2024/01/23 11:06:32;;;;;;;23.00;11.30;;;;;;;2.01;72.89;99543.24;105354;1268;94223;-75
2024/01/23 11:09:06;;;;;;;24.10;11.00;;;;;;;2.01;72.62;99548.12;105959;1263;94315;-75
2024/01/23 11:11:46;;;;;;;24.50;10.80;;;;;;;2.01;72.83;99547.23;105456;1263;107296;-74
2024/01/23 11:14:20;;;;;;;18.50;9.60;;;;;;;2.01;72.96;99537.63;107533;1266;95531;-76
2024/01/23 11:17:06;;;;;;;18.70;10.10;;;;;;;2.03;72.93;99539.65;105158;1261;122871;-74
2024/01/23 11:19:40;;;;;;;21.50;10.60;;;;;;;2.07;72.60;99534.81;105298;1263;94300;-74
2024/01/23 11:22:09;;;;;;;21.10;10.80;;;;;;;2.11;72.70;99536.11;105030;1266;94475;-75
2024/01/23 11:24:47;;;;;;;17.40;8.60;;;;;;;2.14;72.78;99536.20;104866;1268;107248;-75
2024/01/23 11:27:23;;;;;;;22.00;12.20;;;;;;;2.16;72.84;99528.23;107844;1261;95671;-75
2024/01/23 11:29:52;;;;;;;22.40;10.20;;;;;;;2.19;72.74;99520.45;106342;1260;107800;-74